Kensington, Kansas
Current Conditions -  °F | °C
As of 5:15 PM on Friday 19 Dec 2014 (Local Time) from KHDE Reporting Station
Haze Haze  
Wind Chill: 27°   Ceiling: Unl
Heat Index: 32°   Visibility: 5mi
Dew Point: 29°   Wind: 5mph
Humidity: 90%   Direction: 170°S
Pressure: 30.04"   Gusts: NA
Location:  39.77°N, 99.03°W
Report Text: KHDE 192315Z AUTO 17004KT 5SM BR CLR 00/M01 A3004 RMK AO2 T10011015
Loading
Personal Weather Stations






























Interactive Weather Map New forecast layout! Learn more

10-Day Weather Forecast

Advertisements
Track Severe Weather on mobile